sensor_id;sensor_type;location;lat;lon;timestamp;P1;durP1;ratioP1;P2;durP2;ratioP2
31978;SDS011;18502;43.574;1.276;2022-10-28T00:00:01;20.83;;;10.25;;
31978;SDS011;18502;43.574;1.276;2022-10-28T00:02:27;30.75;;;12.75;;
31978;SDS011;18502;43.574;1.276;2022-10-28T00:04:53;21.00;;;10.20;;
31978;SDS011;18502;43.574;1.276;2022-10-28T00:07:18;24.23;;;12.05;;
31978;SDS011;18502;43.574;1.276;2022-10-28T00:09:44;29.63;;;11.05;;
31978;SDS011;18502;43.574;1.276;2022-10-28T00:12:09;24.92;;;11.32;;
31978;SDS011;18502;43.574;1.276;2022-10-28T00:14:35;20.35;;;10.98;;
31978;SDS011;18502;43.574;1.276;2022-10-28T00:17:01;24.00;;;10.65;;
31978;SDS011;18502;43.574;1.276;2022-10-28T00:19:26;31.67;;;12.35;;
31978;SDS011;18502;43.574;1.276;2022-10-28T00:21:53;21.73;;;10.82;;
31978;SDS011;18502;43.574;1.276;2022-10-28T00:24:19;20.65;;;10.45;;
31978;SDS011;18502;43.574;1.276;2022-10-28T00:26:44;24.17;;;11.32;;
31978;SDS011;18502;43.574;1.276;2022-10-28T00:29:11;22.48;;;11.32;;
31978;SDS011;18502;43.574;1.276;2022-10-28T00:31:39;26.42;;;9.55;;
31978;SDS011;18502;43.574;1.276;2022-10-28T00:34:07;15.27;;;6.40;;
31978;SDS011;18502;43.574;1.276;2022-10-28T00:36:39;22.48;;;9.75;;
31978;SDS011;18502;43.574;1.276;2022-10-28T00:39:10;18.15;;;9.38;;
31978;SDS011;18502;43.574;1.276;2022-10-28T00:41:39;19.90;;;10.27;;
31978;SDS011;18502;43.574;1.276;2022-10-28T00:47:07;22.42;;;9.63;;
31978;SDS011;18502;43.574;1.276;2022-10-28T00:49:46;23.52;;;8.90;;
31978;SDS011;18502;43.574;1.276;2022-10-28T00:52:18;18.90;;;9.40;;
31978;SDS011;18502;43.574;1.276;2022-10-28T00:54:46;18.17;;;10.38;;
31978;SDS011;18502;43.574;1.276;2022-10-28T00:57:16;22.90;;;10.60;;
31978;SDS011;18502;43.574;1.276;2022-10-28T00:59:47;21.08;;;10.88;;
31978;SDS011;18502;43.574;1.276;2022-10-28T01:02:16;26.00;;;10.50;;
31978;SDS011;18502;43.574;1.276;2022-10-28T01:04:43;23.77;;;9.50;;
31978;SDS011;18502;43.574;1.276;2022-10-28T01:07:10;19.05;;;9.07;;
31978;SDS011;18502;43.574;1.276;2022-10-28T01:09:36;22.70;;;9.48;;
31978;SDS011;18502;43.574;1.276;2022-10-28T01:17:29;24.55;;;9.10;;
31978;SDS011;18502;43.574;1.276;2022-10-28T01:33:34;26.52;;;10.50;;
31978;SDS011;18502;43.574;1.276;2022-10-28T01:41:16;25.05;;;11.60;;
31978;SDS011;18502;43.574;1.276;2022-10-28T01:43:59;18.73;;;9.25;;
31978;SDS011;18502;43.574;1.276;2022-10-28T01:46:35;19.30;;;10.73;;
31978;SDS011;18502;43.574;1.276;2022-10-28T01:49:13;22.10;;;10.63;;
31978;SDS011;18502;43.574;1.276;2022-10-28T01:51:46;17.75;;;8.70;;
31978;SDS011;18502;43.574;1.276;2022-10-28T01:56:43;21.63;;;9.45;;
31978;SDS011;18502;43.574;1.276;2022-10-28T01:59:15;23.13;;;10.60;;
31978;SDS011;18502;43.574;1.276;2022-10-28T02:01:44;20.75;;;9.98;;
31978;SDS011;18502;43.574;1.276;2022-10-28T02:04:09;19.30;;;9.60;;
31978;SDS011;18502;43.574;1.276;2022-10-28T02:06:35;26.30;;;11.23;;
31978;SDS011;18502;43.574;1.276;2022-10-28T02:22:25;23.10;;;9.45;;
31978;SDS011;18502;43.574;1.276;2022-10-28T02:25:05;29.02;;;10.75;;
31978;SDS011;18502;43.574;1.276;2022-10-28T02:27:55;19.02;;;11.02;;
31978;SDS011;18502;43.574;1.276;2022-10-28T02:30:23;21.55;;;9.40;;
31978;SDS011;18502;43.574;1.276;2022-10-28T02:35:25;22.65;;;10.77;;
31978;SDS011;18502;43.574;1.276;2022-10-28T02:38:10;26.98;;;10.10;;
31978;SDS011;18502;43.574;1.276;2022-10-28T02:40:41;21.42;;;10.60;;
31978;SDS011;18502;43.574;1.276;2022-10-28T02:43:14;24.02;;;11.65;;
31978;SDS011;18502;43.574;1.276;2022-10-28T02:45:42;26.88;;;10.65;;
31978;SDS011;18502;43.574;1.276;2022-10-28T02:48:16;31.02;;;11.23;;
31978;SDS011;18502;43.574;1.276;2022-10-28T02:50:43;22.65;;;10.73;;
31978;SDS011;18502;43.574;1.276;2022-10-28T02:53:15;26.23;;;10.68;;
31978;SDS011;18502;43.574;1.276;2022-10-28T02:55:46;22.85;;;10.18;;
31978;SDS011;18502;43.574;1.276;2022-10-28T02:58:16;23.50;;;9.80;;
31978;SDS011;18502;43.574;1.276;2022-10-28T03:00:43;17.05;;;8.63;;
31978;SDS011;18502;43.574;1.276;2022-10-28T03:03:09;23.45;;;9.65;;
31978;SDS011;18502;43.574;1.276;2022-10-28T03:05:35;20.08;;;10.20;;
31978;SDS011;18502;43.574;1.276;2022-10-28T03:08:00;31.67;;;12.05;;
31978;SDS011;18502;43.574;1.276;2022-10-28T03:10:26;23.52;;;10.60;;
31978;SDS011;18502;43.574;1.276;2022-10-28T03:12:52;16.77;;;8.43;;
31978;SDS011;18502;43.574;1.276;2022-10-28T03:15:17;17.15;;;9.05;;
31978;SDS011;18502;43.574;1.276;2022-10-28T03:17:43;23.67;;;10.07;;
31978;SDS011;18502;43.574;1.276;2022-10-28T03:20:09;25.63;;;10.32;;
31978;SDS011;18502;43.574;1.276;2022-10-28T03:22:35;24.23;;;9.95;;
31978;SDS011;18502;43.574;1.276;2022-10-28T03:25:01;22.90;;;11.25;;
31978;SDS011;18502;43.574;1.276;2022-10-28T03:27:26;23.20;;;10.88;;
31978;SDS011;18502;43.574;1.276;2022-10-28T03:29:52;30.88;;;10.25;;
31978;SDS011;18502;43.574;1.276;2022-10-28T03:32:17;21.58;;;9.32;;
31978;SDS011;18502;43.574;1.276;2022-10-28T03:34:43;20.83;;;8.60;;
31978;SDS011;18502;43.574;1.276;2022-10-28T03:37:10;26.45;;;10.50;;
31978;SDS011;18502;43.574;1.276;2022-10-28T03:39:36;25.08;;;10.18;;
31978;SDS011;18502;43.574;1.276;2022-10-28T03:42:01;24.55;;;10.45;;
31978;SDS011;18502;43.574;1.276;2022-10-28T03:44:27;24.40;;;10.45;;
31978;SDS011;18502;43.574;1.276;2022-10-28T03:46:53;23.17;;;10.23;;
31978;SDS011;18502;43.574;1.276;2022-10-28T03:49:19;20.52;;;8.93;;
31978;SDS011;18502;43.574;1.276;2022-10-28T03:51:44;25.27;;;9.60;;
31978;SDS011;18502;43.574;1.276;2022-10-28T03:54:10;23.95;;;10.85;;
31978;SDS011;18502;43.574;1.276;2022-10-28T03:56:35;23.05;;;9.27;;
31978;SDS011;18502;43.574;1.276;2022-10-28T03:59:04;21.65;;;10.02;;
31978;SDS011;18502;43.574;1.276;2022-10-28T04:01:33;24.10;;;9.90;;
31978;SDS011;18502;43.574;1.276;2022-10-28T04:03:59;24.20;;;9.77;;
31978;SDS011;18502;43.574;1.276;2022-10-28T04:06:24;27.95;;;9.35;;
31978;SDS011;18502;43.574;1.276;2022-10-28T04:08:50;30.92;;;10.77;;
31978;SDS011;18502;43.574;1.276;2022-10-28T04:11:16;20.17;;;9.68;;
31978;SDS011;18502;43.574;1.276;2022-10-28T04:13:41;31.02;;;10.25;;
31978;SDS011;18502;43.574;1.276;2022-10-28T04:16:07;24.23;;;10.55;;
31978;SDS011;18502;43.574;1.276;2022-10-28T04:18:33;21.23;;;9.27;;
31978;SDS011;18502;43.574;1.276;2022-10-28T04:20:59;21.55;;;9.15;;
31978;SDS011;18502;43.574;1.276;2022-10-28T04:23:25;18.65;;;9.82;;
31978;SDS011;18502;43.574;1.276;2022-10-28T04:25:54;22.27;;;8.88;;
31978;SDS011;18502;43.574;1.276;2022-10-28T04:28:20;23.80;;;8.27;;
31978;SDS011;18502;43.574;1.276;2022-10-28T04:30:48;21.90;;;9.75;;
31978;SDS011;18502;43.574;1.276;2022-10-28T04:33:14;25.90;;;9.75;;
31978;SDS011;18502;43.574;1.276;2022-10-28T04:35:40;13.48;;;8.27;;
31978;SDS011;18502;43.574;1.276;2022-10-28T04:38:09;28.33;;;8.85;;
31978;SDS011;18502;43.574;1.276;2022-10-28T04:40:35;28.95;;;10.13;;
31978;SDS011;18502;43.574;1.276;2022-10-28T04:43:01;23.77;;;9.48;;
31978;SDS011;18502;43.574;1.276;2022-10-28T04:45:27;20.98;;;7.63;;
31978;SDS011;18502;43.574;1.276;2022-10-28T04:47:59;25.20;;;10.80;;
31978;SDS011;18502;43.574;1.276;2022-10-28T04:50:25;17.08;;;8.98;;
31978;SDS011;18502;43.574;1.276;2022-10-28T04:52:51;25.92;;;11.35;;
31978;SDS011;18502;43.574;1.276;2022-10-28T04:55:17;18.45;;;8.23;;
31978;SDS011;18502;43.574;1.276;2022-10-28T04:57:43;19.88;;;8.98;;
31978;SDS011;18502;43.574;1.276;2022-10-28T05:00:09;28.30;;;11.13;;
31978;SDS011;18502;43.574;1.276;2022-10-28T05:02:35;24.40;;;9.95;;
31978;SDS011;18502;43.574;1.276;2022-10-28T05:05:01;22.25;;;10.23;;
31978;SDS011;18502;43.574;1.276;2022-10-28T05:07:28;29.27;;;9.07;;
31978;SDS011;18502;43.574;1.276;2022-10-28T05:09:54;25.92;;;10.05;;
31978;SDS011;18502;43.574;1.276;2022-10-28T05:12:20;26.25;;;10.10;;
31978;SDS011;18502;43.574;1.276;2022-10-28T05:14:45;23.20;;;9.45;;
31978;SDS011;18502;43.574;1.276;2022-10-28T05:17:11;18.42;;;9.43;;
31978;SDS011;18502;43.574;1.276;2022-10-28T05:19:37;24.20;;;8.70;;
31978;SDS011;18502;43.574;1.276;2022-10-28T05:22:02;20.95;;;9.15;;
31978;SDS011;18502;43.574;1.276;2022-10-28T05:24:28;24.20;;;10.65;;
31978;SDS011;18502;43.574;1.276;2022-10-28T05:26:54;28.17;;;10.98;;
31978;SDS011;18502;43.574;1.276;2022-10-28T05:29:19;24.50;;;10.43;;
31978;SDS011;18502;43.574;1.276;2022-10-28T05:31:45;27.17;;;9.73;;
31978;SDS011;18502;43.574;1.276;2022-10-28T05:34:10;29.17;;;10.90;;
31978;SDS011;18502;43.574;1.276;2022-10-28T05:36:36;22.52;;;10.05;;
31978;SDS011;18502;43.574;1.276;2022-10-28T05:39:03;25.77;;;11.23;;
31978;SDS011;18502;43.574;1.276;2022-10-28T05:41:29;21.08;;;11.02;;
31978;SDS011;18502;43.574;1.276;2022-10-28T05:43:55;24.83;;;11.15;;
31978;SDS011;18502;43.574;1.276;2022-10-28T05:46:20;30.38;;;10.13;;
31978;SDS011;18502;43.574;1.276;2022-10-28T05:48:46;19.17;;;10.38;;
31978;SDS011;18502;43.574;1.276;2022-10-28T05:51:12;20.10;;;10.43;;
31978;SDS011;18502;43.574;1.276;2022-10-28T05:53:38;20.30;;;9.55;;
31978;SDS011;18502;43.574;1.276;2022-10-28T05:56:06;26.13;;;9.55;;
31978;SDS011;18502;43.574;1.276;2022-10-28T05:58:32;21.20;;;8.80;;
31978;SDS011;18502;43.574;1.276;2022-10-28T06:00:58;24.38;;;10.27;;
31978;SDS011;18502;43.574;1.276;2022-10-28T06:03:24;18.38;;;8.85;;
31978;SDS011;18502;43.574;1.276;2022-10-28T06:05:50;23.95;;;11.10;;
31978;SDS011;18502;43.574;1.276;2022-10-28T06:08:16;25.48;;;10.52;;
31978;SDS011;18502;43.574;1.276;2022-10-28T06:10:48;31.42;;;11.88;;
31978;SDS011;18502;43.574;1.276;2022-10-28T06:13:15;27.90;;;10.90;;
31978;SDS011;18502;43.574;1.276;2022-10-28T06:15:41;22.65;;;10.85;;
31978;SDS011;18502;43.574;1.276;2022-10-28T06:18:06;22.50;;;9.60;;
31978;SDS011;18502;43.574;1.276;2022-10-28T06:20:32;30.73;;;10.90;;
31978;SDS011;18502;43.574;1.276;2022-10-28T06:22:58;23.90;;;10.85;;
31978;SDS011;18502;43.574;1.276;2022-10-28T06:25:24;23.70;;;10.27;;
31978;SDS011;18502;43.574;1.276;2022-10-28T06:27:54;27.70;;;11.05;;
31978;SDS011;18502;43.574;1.276;2022-10-28T06:30:21;25.45;;;10.48;;
31978;SDS011;18502;43.574;1.276;2022-10-28T06:32:47;20.08;;;9.57;;
31978;SDS011;18502;43.574;1.276;2022-10-28T06:35:13;24.17;;;11.02;;
31978;SDS011;18502;43.574;1.276;2022-10-28T06:37:38;22.48;;;9.15;;
31978;SDS011;18502;43.574;1.276;2022-10-28T06:40:04;27.17;;;11.30;;
31978;SDS011;18502;43.574;1.276;2022-10-28T06:42:30;29.08;;;10.73;;
31978;SDS011;18502;43.574;1.276;2022-10-28T06:44:56;22.85;;;8.57;;
31978;SDS011;18502;43.574;1.276;2022-10-28T06:47:22;25.05;;;10.23;;
31978;SDS011;18502;43.574;1.276;2022-10-28T06:49:47;33.60;;;11.25;;
31978;SDS011;18502;43.574;1.276;2022-10-28T06:52:13;29.15;;;10.80;;
31978;SDS011;18502;43.574;1.276;2022-10-28T06:54:39;21.58;;;9.95;;
31978;SDS011;18502;43.574;1.276;2022-10-28T06:57:05;24.08;;;9.75;;
31978;SDS011;18502;43.574;1.276;2022-10-28T06:59:30;22.35;;;9.52;;
31978;SDS011;18502;43.574;1.276;2022-10-28T07:01:56;26.67;;;10.10;;
31978;SDS011;18502;43.574;1.276;2022-10-28T07:04:21;21.00;;;8.90;;
31978;SDS011;18502;43.574;1.276;2022-10-28T07:06:47;24.23;;;9.80;;
31978;SDS011;18502;43.574;1.276;2022-10-28T07:09:13;19.15;;;7.32;;
31978;SDS011;18502;43.574;1.276;2022-10-28T07:11:39;21.77;;;9.30;;
31978;SDS011;18502;43.574;1.276;2022-10-28T07:14:07;22.23;;;9.43;;
31978;SDS011;18502;43.574;1.276;2022-10-28T07:16:34;28.58;;;10.43;;
31978;SDS011;18502;43.574;1.276;2022-10-28T07:19:00;20.50;;;9.95;;
31978;SDS011;18502;43.574;1.276;2022-10-28T07:21:26;23.58;;;10.00;;
31978;SDS011;18502;43.574;1.276;2022-10-28T07:23:56;26.25;;;10.27;;
31978;SDS011;18502;43.574;1.276;2022-10-28T07:26:22;25.67;;;9.85;;
31978;SDS011;18502;43.574;1.276;2022-10-28T07:28:48;25.77;;;9.52;;
31978;SDS011;18502;43.574;1.276;2022-10-28T07:31:14;21.08;;;8.93;;
31978;SDS011;18502;43.574;1.276;2022-10-28T07:33:40;27.40;;;9.95;;
31978;SDS011;18502;43.574;1.276;2022-10-28T07:36:06;13.20;;;8.85;;
31978;SDS011;18502;43.574;1.276;2022-10-28T07:38:33;22.48;;;9.85;;
31978;SDS011;18502;43.574;1.276;2022-10-28T07:41:02;20.00;;;8.73;;
31978;SDS011;18502;43.574;1.276;2022-10-28T07:43:33;26.95;;;10.35;;
31978;SDS011;18502;43.574;1.276;2022-10-28T07:46:00;32.05;;;10.52;;
31978;SDS011;18502;43.574;1.276;2022-10-28T07:48:26;23.10;;;9.30;;
31978;SDS011;18502;43.574;1.276;2022-10-28T07:50:52;23.58;;;9.30;;
31978;SDS011;18502;43.574;1.276;2022-10-28T07:53:18;22.83;;;9.85;;
31978;SDS011;18502;43.574;1.276;2022-10-28T07:55:44;25.92;;;8.48;;
31978;SDS011;18502;43.574;1.276;2022-10-28T07:58:09;28.02;;;9.05;;
31978;SDS011;18502;43.574;1.276;2022-10-28T08:00:35;29.13;;;10.77;;
31978;SDS011;18502;43.574;1.276;2022-10-28T08:03:01;19.42;;;8.57;;
31978;SDS011;18502;43.574;1.276;2022-10-28T08:05:27;14.88;;;8.38;;
31978;SDS011;18502;43.574;1.276;2022-10-28T08:07:53;22.88;;;9.63;;
31978;SDS011;18502;43.574;1.276;2022-10-28T08:10:20;15.50;;;8.00;;
31978;SDS011;18502;43.574;1.276;2022-10-28T08:12:45;25.67;;;7.85;;
31978;SDS011;18502;43.574;1.276;2022-10-28T08:15:11;19.92;;;8.48;;
31978;SDS011;18502;43.574;1.276;2022-10-28T08:17:38;22.92;;;8.15;;
31978;SDS011;18502;43.574;1.276;2022-10-28T08:20:04;16.55;;;8.20;;
31978;SDS011;18502;43.574;1.276;2022-10-28T08:22:30;20.27;;;7.75;;
31978;SDS011;18502;43.574;1.276;2022-10-28T08:24:56;24.77;;;9.95;;
31978;SDS011;18502;43.574;1.276;2022-10-28T08:27:21;18.25;;;6.65;;
31978;SDS011;18502;43.574;1.276;2022-10-28T08:29:47;19.23;;;8.02;;
31978;SDS011;18502;43.574;1.276;2022-10-28T08:32:13;18.45;;;8.90;;
31978;SDS011;18502;43.574;1.276;2022-10-28T08:34:38;25.63;;;8.98;;
31978;SDS011;18502;43.574;1.276;2022-10-28T08:37:04;18.40;;;8.88;;
31978;SDS011;18502;43.574;1.276;2022-10-28T08:39:29;22.10;;;8.63;;
31978;SDS011;18502;43.574;1.276;2022-10-28T08:44:52;17.48;;;5.88;;
31978;SDS011;18502;43.574;1.276;2022-10-28T08:50:26;15.95;;;6.90;;
31978;SDS011;18502;43.574;1.276;2022-10-28T08:55:38;24.55;;;10.32;;
31978;SDS011;18502;43.574;1.276;2022-10-28T08:58:11;21.95;;;8.88;;
31978;SDS011;18502;43.574;1.276;2022-10-28T09:00:45;20.95;;;8.48;;
31978;SDS011;18502;43.574;1.276;2022-10-28T09:03:16;25.58;;;8.73;;
31978;SDS011;18502;43.574;1.276;2022-10-28T09:05:47;21.48;;;7.90;;
31978;SDS011;18502;43.574;1.276;2022-10-28T09:08:22;28.08;;;9.65;;
31978;SDS011;18502;43.574;1.276;2022-10-28T09:16:48;15.93;;;6.28;;
31978;SDS011;18502;43.574;1.276;2022-10-28T09:35:25;21.92;;;6.93;;
31978;SDS011;18502;43.574;1.276;2022-10-28T09:37:58;25.98;;;7.53;;
31978;SDS011;18502;43.574;1.276;2022-10-28T09:40:39;16.77;;;5.90;;
31978;SDS011;18502;43.574;1.276;2022-10-28T09:45:59;16.42;;;7.72;;
31978;SDS011;18502;43.574;1.276;2022-10-28T09:48:50;17.63;;;7.45;;
31978;SDS011;18502;43.574;1.276;2022-10-28T09:51:27;21.83;;;5.97;;
31978;SDS011;18502;43.574;1.276;2022-10-28T09:54:16;18.00;;;6.95;;
31978;SDS011;18502;43.574;1.276;2022-10-28T09:56:43;20.73;;;6.93;;
31978;SDS011;18502;43.574;1.276;2022-10-28T09:59:10;18.50;;;7.80;;
31978;SDS011;18502;43.574;1.276;2022-10-28T10:01:39;19.38;;;7.90;;
31978;SDS011;18502;43.574;1.276;2022-10-28T10:04:16;20.25;;;7.18;;
31978;SDS011;18502;43.574;1.276;2022-10-28T10:06:44;20.05;;;7.32;;
31978;SDS011;18502;43.574;1.276;2022-10-28T10:09:16;21.50;;;7.65;;
31978;SDS011;18502;43.574;1.276;2022-10-28T10:11:52;27.27;;;7.53;;
31978;SDS011;18502;43.574;1.276;2022-10-28T10:14:33;18.45;;;8.15;;
31978;SDS011;18502;43.574;1.276;2022-10-28T10:17:05;16.48;;;6.70;;
31978;SDS011;18502;43.574;1.276;2022-10-28T10:19:59;16.30;;;7.20;;
31978;SDS011;18502;43.574;1.276;2022-10-28T10:22:37;18.73;;;7.38;;
31978;SDS011;18502;43.574;1.276;2022-10-28T10:27:42;13.25;;;5.93;;
31978;SDS011;18502;43.574;1.276;2022-10-28T10:30:25;19.52;;;6.53;;
31978;SDS011;18502;43.574;1.276;2022-10-28T10:32:58;21.80;;;6.70;;
31978;SDS011;18502;43.574;1.276;2022-10-28T10:35:26;17.38;;;7.90;;
31978;SDS011;18502;43.574;1.276;2022-10-28T10:37:55;16.40;;;7.17;;
31978;SDS011;18502;43.574;1.276;2022-10-28T10:40:29;23.50;;;8.00;;
31978;SDS011;18502;43.574;1.276;2022-10-28T10:48:22;23.92;;;7.45;;
31978;SDS011;18502;43.574;1.276;2022-10-28T10:50:48;16.25;;;6.70;;
31978;SDS011;18502;43.574;1.276;2022-10-28T10:53:25;21.40;;;7.10;;
31978;SDS011;18502;43.574;1.276;2022-10-28T10:55:58;13.15;;;6.00;;
31978;SDS011;18502;43.574;1.276;2022-10-28T10:58:30;20.25;;;6.07;;
31978;SDS011;18502;43.574;1.276;2022-10-28T11:00:58;15.30;;;5.53;;
31978;SDS011;18502;43.574;1.276;2022-10-28T11:05:59;19.38;;;7.28;;
31978;SDS011;18502;43.574;1.276;2022-10-28T11:11:09;18.55;;;6.78;;
31978;SDS011;18502;43.574;1.276;2022-10-28T11:13:37;18.98;;;6.30;;
31978;SDS011;18502;43.574;1.276;2022-10-28T11:16:05;16.45;;;5.72;;
31978;SDS011;18502;43.574;1.276;2022-10-28T11:18:42;25.30;;;7.22;;
31978;SDS011;18502;43.574;1.276;2022-10-28T11:21:57;16.33;;;5.78;;
31978;SDS011;18502;43.574;1.276;2022-10-28T11:26:55;15.20;;;5.85;;
31978;SDS011;18502;43.574;1.276;2022-10-28T11:29:41;15.13;;;4.82;;
31978;SDS011;18502;43.574;1.276;2022-10-28T11:32:14;12.98;;;5.20;;
31978;SDS011;18502;43.574;1.276;2022-10-28T11:43:11;23.27;;;6.65;;
31978;SDS011;18502;43.574;1.276;2022-10-28T11:46:12;15.02;;;5.20;;
31978;SDS011;18502;43.574;1.276;2022-10-28T11:51:52;17.05;;;6.35;;
31978;SDS011;18502;43.574;1.276;2022-10-28T12:00:00;20.55;;;5.65;;
31978;SDS011;18502;43.574;1.276;2022-10-28T12:05:42;16.17;;;5.15;;
31978;SDS011;18502;43.574;1.276;2022-10-28T12:11:26;20.05;;;5.97;;
31978;SDS011;18502;43.574;1.276;2022-10-28T12:19:18;10.23;;;4.57;;
31978;SDS011;18502;43.574;1.276;2022-10-28T12:27:09;19.95;;;4.82;;
31978;SDS011;18502;43.574;1.276;2022-10-28T12:29:40;16.63;;;5.40;;
31978;SDS011;18502;43.574;1.276;2022-10-28T12:32:13;23.95;;;5.97;;
31978;SDS011;18502;43.574;1.276;2022-10-28T12:35:27;12.95;;;4.70;;
31978;SDS011;18502;43.574;1.276;2022-10-28T12:37:56;22.10;;;6.50;;
31978;SDS011;18502;43.574;1.276;2022-10-28T12:40:30;9.77;;;4.30;;
31978;SDS011;18502;43.574;1.276;2022-10-28T12:45:38;13.45;;;5.20;;
31978;SDS011;18502;43.574;1.276;2022-10-28T12:48:16;19.33;;;6.10;;
31978;SDS011;18502;43.574;1.276;2022-10-28T12:50:49;13.52;;;4.65;;
31978;SDS011;18502;43.574;1.276;2022-10-28T12:53:27;20.85;;;6.57;;
31978;SDS011;18502;43.574;1.276;2022-10-28T12:56:11;17.42;;;5.25;;
31978;SDS011;18502;43.574;1.276;2022-10-28T12:58:53;20.05;;;6.57;;
31978;SDS011;18502;43.574;1.276;2022-10-28T13:01:25;19.27;;;6.35;;
31978;SDS011;18502;43.574;1.276;2022-10-28T13:03:54;21.27;;;6.70;;
31978;SDS011;18502;43.574;1.276;2022-10-28T13:06:24;26.80;;;6.63;;
31978;SDS011;18502;43.574;1.276;2022-10-28T13:09:04;17.17;;;5.68;;
31978;SDS011;18502;43.574;1.276;2022-10-28T13:27:55;23.80;;;6.05;;
31978;SDS011;18502;43.574;1.276;2022-10-28T13:30:22;18.55;;;5.78;;
31978;SDS011;18502;43.574;1.276;2022-10-28T13:32:51;19.05;;;5.53;;
31978;SDS011;18502;43.574;1.276;2022-10-28T13:35:33;18.13;;;6.15;;
31978;SDS011;18502;43.574;1.276;2022-10-28T13:38:01;20.73;;;6.22;;
31978;SDS011;18502;43.574;1.276;2022-10-28T13:42:59;16.85;;;5.88;;
31978;SDS011;18502;43.574;1.276;2022-10-28T13:59:18;14.98;;;6.13;;
31978;SDS011;18502;43.574;1.276;2022-10-28T14:01:53;17.70;;;5.40;;
31978;SDS011;18502;43.574;1.276;2022-10-28T14:04:23;23.80;;;5.53;;
31978;SDS011;18502;43.574;1.276;2022-10-28T14:06:49;17.65;;;5.95;;
31978;SDS011;18502;43.574;1.276;2022-10-28T14:09:26;18.67;;;6.03;;
31978;SDS011;18502;43.574;1.276;2022-10-28T14:12:02;20.50;;;5.35;;
31978;SDS011;18502;43.574;1.276;2022-10-28T14:14:53;21.70;;;6.30;;
31978;SDS011;18502;43.574;1.276;2022-10-28T14:17:29;17.58;;;5.65;;
31978;SDS011;18502;43.574;1.276;2022-10-28T14:20:27;17.85;;;5.97;;
31978;SDS011;18502;43.574;1.276;2022-10-28T14:22:57;23.02;;;6.28;;
31978;SDS011;18502;43.574;1.276;2022-10-28T14:41:37;18.55;;;6.40;;
31978;SDS011;18502;43.574;1.276;2022-10-28T14:50:21;22.00;;;5.50;;
31978;SDS011;18502;43.574;1.276;2022-10-28T14:52:57;17.88;;;6.18;;
31978;SDS011;18502;43.574;1.276;2022-10-28T14:55:26;17.35;;;6.07;;
31978;SDS011;18502;43.574;1.276;2022-10-28T15:00:40;15.80;;;5.88;;
31978;SDS011;18502;43.574;1.276;2022-10-28T15:03:10;21.50;;;6.40;;
31978;SDS011;18502;43.574;1.276;2022-10-28T15:05:38;26.55;;;6.10;;
31978;SDS011;18502;43.574;1.276;2022-10-28T15:08:03;17.48;;;6.32;;
31978;SDS011;18502;43.574;1.276;2022-10-28T15:10:30;14.95;;;6.60;;
31978;SDS011;18502;43.574;1.276;2022-10-28T15:13:00;19.40;;;5.93;;
31978;SDS011;18502;43.574;1.276;2022-10-28T15:15:27;15.52;;;5.85;;
31978;SDS011;18502;43.574;1.276;2022-10-28T15:17:54;19.58;;;6.57;;
31978;SDS011;18502;43.574;1.276;2022-10-28T15:20:26;18.65;;;7.03;;
31978;SDS011;18502;43.574;1.276;2022-10-28T15:25:40;21.08;;;6.15;;
31978;SDS011;18502;43.574;1.276;2022-10-28T15:28:07;15.88;;;5.63;;
31978;SDS011;18502;43.574;1.276;2022-10-28T15:30:37;19.00;;;6.25;;
31978;SDS011;18502;43.574;1.276;2022-10-28T15:33:17;14.40;;;5.60;;
31978;SDS011;18502;43.574;1.276;2022-10-28T15:35:53;20.02;;;5.45;;
31978;SDS011;18502;43.574;1.276;2022-10-28T15:38:40;18.17;;;5.85;;
31978;SDS011;18502;43.574;1.276;2022-10-28T15:43:55;18.90;;;5.35;;
31978;SDS011;18502;43.574;1.276;2022-10-28T15:46:25;20.42;;;5.45;;
31978;SDS011;18502;43.574;1.276;2022-10-28T15:48:52;14.07;;;5.55;;
31978;SDS011;18502;43.574;1.276;2022-10-28T15:51:19;14.55;;;5.75;;
31978;SDS011;18502;43.574;1.276;2022-10-28T15:53:46;14.13;;;5.30;;
31978;SDS011;18502;43.574;1.276;2022-10-28T15:58:42;18.45;;;5.50;;
31978;SDS011;18502;43.574;1.276;2022-10-28T16:01:41;16.85;;;6.38;;
31978;SDS011;18502;43.574;1.276;2022-10-28T16:06:51;15.48;;;5.82;;
31978;SDS011;18502;43.574;1.276;2022-10-28T16:11:56;17.20;;;5.50;;
31978;SDS011;18502;43.574;1.276;2022-10-28T16:22:21;16.58;;;5.80;;
31978;SDS011;18502;43.574;1.276;2022-10-28T16:24:48;31.67;;;7.63;;
31978;SDS011;18502;43.574;1.276;2022-10-28T16:27:17;18.13;;;6.55;;
31978;SDS011;18502;43.574;1.276;2022-10-28T16:29:50;18.05;;;6.18;;
31978;SDS011;18502;43.574;1.276;2022-10-28T16:32:17;18.70;;;7.03;;
31978;SDS011;18502;43.574;1.276;2022-10-28T16:34:49;14.60;;;6.25;;
31978;SDS011;18502;43.574;1.276;2022-10-28T16:37:22;15.43;;;5.70;;
31978;SDS011;18502;43.574;1.276;2022-10-28T16:39:50;18.10;;;6.18;;
31978;SDS011;18502;43.574;1.276;2022-10-28T16:42:16;21.48;;;6.32;;
31978;SDS011;18502;43.574;1.276;2022-10-28T16:44:42;21.83;;;7.85;;
31978;SDS011;18502;43.574;1.276;2022-10-28T16:47:15;14.90;;;5.70;;
31978;SDS011;18502;43.574;1.276;2022-10-28T16:49:43;22.17;;;6.97;;
31978;SDS011;18502;43.574;1.276;2022-10-28T16:52:13;17.70;;;6.22;;
31978;SDS011;18502;43.574;1.276;2022-10-28T16:54:41;15.57;;;6.18;;
31978;SDS011;18502;43.574;1.276;2022-10-28T16:57:07;14.68;;;6.57;;
31978;SDS011;18502;43.574;1.276;2022-10-28T16:59:33;17.92;;;6.95;;
31978;SDS011;18502;43.574;1.276;2022-10-28T17:01:59;16.98;;;7.10;;
31978;SDS011;18502;43.574;1.276;2022-10-28T17:04:24;16.40;;;6.65;;
31978;SDS011;18502;43.574;1.276;2022-10-28T17:06:50;18.38;;;6.45;;
31978;SDS011;18502;43.574;1.276;2022-10-28T17:09:16;20.90;;;6.70;;
31978;SDS011;18502;43.574;1.276;2022-10-28T17:11:42;21.30;;;7.72;;
31978;SDS011;18502;43.574;1.276;2022-10-28T17:14:07;20.45;;;7.30;;
31978;SDS011;18502;43.574;1.276;2022-10-28T17:16:33;18.80;;;6.10;;
31978;SDS011;18502;43.574;1.276;2022-10-28T17:19:00;14.40;;;5.80;;
31978;SDS011;18502;43.574;1.276;2022-10-28T17:21:25;21.35;;;7.85;;
31978;SDS011;18502;43.574;1.276;2022-10-28T17:23:51;14.02;;;5.88;;
31978;SDS011;18502;43.574;1.276;2022-10-28T17:26:17;21.58;;;7.82;;
31978;SDS011;18502;43.574;1.276;2022-10-28T17:28:42;19.88;;;7.28;;
31978;SDS011;18502;43.574;1.276;2022-10-28T17:31:08;18.08;;;6.68;;
31978;SDS011;18502;43.574;1.276;2022-10-28T17:33:34;12.63;;;6.57;;
31978;SDS011;18502;43.574;1.276;2022-10-28T17:36:01;21.27;;;7.35;;
31978;SDS011;18502;43.574;1.276;2022-10-28T17:38:29;23.38;;;7.72;;
31978;SDS011;18502;43.574;1.276;2022-10-28T17:40:55;18.23;;;6.93;;
31978;SDS011;18502;43.574;1.276;2022-10-28T17:43:21;23.42;;;6.95;;
31978;SDS011;18502;43.574;1.276;2022-10-28T17:45:47;19.98;;;6.93;;
31978;SDS011;18502;43.574;1.276;2022-10-28T17:48:14;18.33;;;7.00;;
31978;SDS011;18502;43.574;1.276;2022-10-28T17:50:40;18.48;;;7.25;;
31978;SDS011;18502;43.574;1.276;2022-10-28T17:53:05;19.75;;;7.43;;
31978;SDS011;18502;43.574;1.276;2022-10-28T17:55:31;20.90;;;7.30;;
31978;SDS011;18502;43.574;1.276;2022-10-28T17:57:57;17.23;;;7.35;;
31978;SDS011;18502;43.574;1.276;2022-10-28T18:00:22;17.30;;;6.93;;
31978;SDS011;18502;43.574;1.276;2022-10-28T18:02:52;17.70;;;7.40;;
31978;SDS011;18502;43.574;1.276;2022-10-28T18:05:21;18.92;;;7.80;;
31978;SDS011;18502;43.574;1.276;2022-10-28T18:07:47;22.33;;;7.95;;
31978;SDS011;18502;43.574;1.276;2022-10-28T18:10:13;22.50;;;7.20;;
31978;SDS011;18502;43.574;1.276;2022-10-28T18:12:40;22.48;;;8.45;;